createdAt,value
2022-11-16T00:01:33.166Z,3.75
2022-11-16T00:04:02.271Z,6.82
2022-11-16T00:06:29.743Z,2.75
2022-11-16T00:09:19.159Z,2.60
2022-11-16T00:11:46.882Z,5.47
2022-11-16T00:14:14.191Z,4.22
2022-11-16T00:16:41.576Z,2.30
2022-11-16T00:19:10.828Z,5.07
2022-11-16T00:21:38.136Z,3.97
2022-11-16T00:24:05.905Z,1.77
2022-11-16T00:26:33.286Z,4.80
2022-11-16T00:29:00.948Z,4.07
2022-11-16T00:31:28.275Z,3.80
2022-11-16T00:33:55.551Z,3.55
2022-11-16T00:36:22.779Z,3.58
2022-11-16T00:38:53.573Z,6.80
2022-11-16T00:41:21.028Z,3.60
2022-11-16T00:43:48.407Z,2.55
2022-11-16T00:46:15.896Z,2.60
2022-11-16T00:48:43.117Z,1.08
2022-11-16T00:51:10.514Z,2.35
2022-11-16T00:53:37.835Z,2.38
2022-11-16T00:56:05.479Z,1.80
2022-11-16T00:58:37.885Z,2.08
2022-11-16T01:01:09.860Z,0.60
2022-11-16T01:03:37.993Z,0.93
2022-11-16T01:06:07.849Z,2.83
2022-11-16T01:08:37.077Z,2.60
2022-11-16T01:11:24.809Z,3.75
2022-11-16T01:13:52.265Z,1.77
2022-11-16T01:16:21.914Z,1.67
2022-11-16T01:18:53.547Z,0.47
2022-11-16T01:21:22.076Z,2.72
2022-11-16T01:23:49.323Z,1.38
2022-11-16T01:26:16.462Z,1.45
2022-11-16T01:28:43.753Z,0.73
2022-11-16T01:31:11.707Z,1.40
2022-11-16T01:33:39.258Z,1.08
2022-11-16T01:36:14.811Z,0.80
2022-11-16T01:38:44.357Z,1.60
2022-11-16T01:41:25.985Z,2.05
2022-11-16T01:44:04.773Z,1.83
2022-11-16T01:46:40.101Z,2.65
2022-11-16T01:49:17.020Z,0.90
2022-11-16T01:51:49.801Z,2.40
2022-11-16T01:54:17.167Z,4.18
2022-11-16T01:57:00.475Z,4.57
2022-11-16T01:59:41.324Z,3.80
2022-11-16T02:02:15.301Z,4.13
2022-11-16T02:04:44.460Z,1.42
2022-11-16T02:07:53.706Z,3.88
2022-11-16T02:10:58.590Z,2.13
2022-11-16T02:13:53.701Z,3.53
2022-11-16T02:16:42.174Z,5.97
2022-11-16T02:19:36.683Z,2.67
2022-11-16T02:22:15.350Z,2.35
2022-11-16T02:25:04.410Z,5.70
2022-11-16T02:27:50.112Z,1.52
2022-11-16T02:30:19.063Z,4.60
2022-11-16T02:33:00.702Z,5.55
2022-11-16T02:35:42.341Z,6.83
2022-11-16T02:38:15.790Z,3.35
2022-11-16T02:40:48.413Z,4.85
2022-11-16T02:43:29.651Z,2.88
2022-11-16T02:46:05.484Z,3.83
2022-11-16T02:48:43.890Z,5.63
2022-11-16T02:51:11.966Z,2.13
2022-11-16T02:53:50.611Z,1.67
2022-11-16T02:56:19.092Z,7.13
2022-11-16T02:58:48.059Z,3.00
2022-11-16T03:01:25.251Z,3.33
2022-11-16T03:04:03.075Z,6.32
2022-11-16T03:06:34.134Z,2.50
2022-11-16T03:09:13.403Z,3.55
2022-11-16T03:12:00.569Z,1.90
2022-11-16T03:14:39.353Z,0.98
2022-11-16T03:17:11.268Z,2.50
2022-11-16T03:20:15.426Z,1.30
2022-11-16T03:22:52.644Z,3.10
2022-11-16T03:25:22.614Z,1.73
2022-11-16T03:28:01.183Z,1.00
2022-11-16T03:30:32.185Z,3.45
2022-11-16T03:33:04.870Z,1.48
2022-11-16T03:35:41.707Z,1.85
2022-11-16T03:38:11.019Z,0.60
2022-11-16T03:40:45.788Z,4.13
2022-11-16T03:43:15.556Z,1.57
2022-11-16T03:45:44.330Z,4.43
2022-11-16T03:48:12.862Z,2.33
2022-11-16T03:50:42.444Z,3.15
2022-11-16T03:53:09.704Z,2.85
2022-11-16T03:55:38.000Z,2.63
2022-11-16T03:58:05.732Z,6.38
2022-11-16T04:00:33.751Z,4.43
2022-11-16T04:03:07.029Z,4.60
2022-11-16T04:05:52.452Z,4.75
2022-11-16T04:08:38.314Z,1.13
2022-11-16T04:11:24.978Z,4.22
2022-11-16T04:14:34.272Z,1.80
2022-11-16T04:17:22.328Z,2.40
2022-11-16T04:20:08.266Z,5.22
2022-11-16T04:23:08.504Z,2.53
2022-11-16T04:25:39.920Z,3.05
2022-11-16T04:28:14.713Z,2.45
2022-11-16T04:31:11.804Z,2.72
2022-11-16T04:33:59.847Z,1.40
2022-11-16T04:36:46.687Z,1.35
2022-11-16T04:39:14.323Z,0.63
2022-11-16T04:42:06.831Z,4.05
2022-11-16T04:44:54.683Z,3.28
2022-11-16T04:47:24.842Z,3.47
2022-11-16T04:49:52.167Z,1.55
2022-11-16T04:52:19.301Z,1.77
2022-11-16T04:54:46.741Z,1.58
2022-11-16T04:57:14.023Z,2.28
2022-11-16T04:59:41.181Z,1.13
2022-11-16T05:02:09.258Z,1.52
2022-11-16T05:04:44.769Z,0.57
2022-11-16T05:07:14.722Z,2.38
2022-11-16T05:09:46.619Z,0.85
2022-11-16T05:12:23.227Z,4.25
2022-11-16T05:14:57.774Z,1.08
2022-11-16T05:17:28.221Z,2.67
2022-11-16T05:20:18.917Z,2.22
2022-11-16T05:22:54.757Z,2.33
2022-11-16T05:25:23.211Z,0.30
2022-11-16T05:27:50.995Z,0.80
2022-11-16T05:30:18.318Z,0.82
2022-11-16T05:32:45.582Z,1.77
2022-11-16T05:35:14.254Z,0.90
2022-11-16T05:37:42.970Z,1.10
2022-11-16T05:40:11.288Z,0.88
2022-11-16T05:42:44.784Z,1.85
2022-11-16T05:45:14.861Z,2.03
2022-11-16T05:50:11.637Z,1.50
2022-11-16T05:52:43.730Z,2.08
2022-11-16T05:55:12.141Z,4.07
2022-11-16T05:57:44.007Z,5.07
2022-11-16T06:00:12.464Z,5.13
2022-11-16T06:02:42.741Z,1.15
2022-11-16T06:05:19.095Z,1.13
2022-11-16T06:07:47.651Z,2.92
2022-11-16T06:10:14.899Z,3.17
2022-11-16T06:12:47.409Z,1.13
2022-11-16T06:15:14.912Z,1.80
2022-11-16T06:17:42.334Z,2.88
2022-11-16T06:20:11.504Z,4.30
2022-11-16T06:22:39.626Z,3.40
2022-11-16T06:25:08.162Z,2.35
2022-11-16T06:27:40.528Z,5.13
2022-11-16T06:30:09.594Z,2.97
2022-11-16T06:32:40.104Z,1.55
2022-11-16T06:35:08.627Z,2.33
2022-11-16T06:37:37.218Z,2.90
2022-11-16T06:40:08.542Z,1.40
2022-11-16T06:42:39.419Z,3.65
2022-11-16T06:45:10.109Z,1.63
2022-11-16T06:47:41.286Z,1.92
2022-11-16T06:50:09.005Z,5.38
2022-11-16T06:52:36.115Z,2.70
2022-11-16T06:55:03.813Z,1.63
2022-11-16T06:57:35.708Z,2.47
2022-11-16T07:00:05.371Z,2.63
2022-11-16T07:02:37.826Z,4.75
2022-11-16T07:05:07.499Z,4.10
2022-11-16T07:08:02.332Z,3.90
2022-11-16T07:10:33.645Z,3.50
2022-11-16T07:13:04.901Z,2.13
2022-11-16T07:15:39.912Z,4.18
2022-11-16T07:18:10.637Z,3.65
2022-11-16T07:20:47.543Z,2.78
2022-11-16T07:23:21.495Z,4.28
2022-11-16T07:26:10.263Z,5.70
2022-11-16T07:29:02.631Z,3.30
2022-11-16T07:31:32.131Z,2.50
2022-11-16T07:34:18.863Z,4.68
2022-11-16T07:37:00.471Z,1.75
2022-11-16T07:39:28.130Z,2.08
2022-11-16T07:41:59.329Z,3.83
2022-11-16T07:44:39.524Z,2.67
2022-11-16T07:47:10.226Z,1.85
2022-11-16T07:49:37.821Z,2.38
2022-11-16T07:52:14.911Z,3.95
2022-11-16T07:54:58.211Z,5.28
2022-11-16T07:57:27.620Z,5.53
2022-11-16T07:59:56.516Z,2.22
2022-11-16T08:02:23.855Z,4.03
2022-11-16T08:04:51.691Z,2.75
2022-11-16T08:07:23.854Z,4.70
2022-11-16T08:09:58.410Z,4.40
2022-11-16T08:12:25.977Z,2.58
2022-11-16T08:14:54.302Z,1.40
2022-11-16T08:17:21.583Z,4.00
2022-11-16T08:19:49.263Z,5.80
2022-11-16T08:22:16.931Z,4.40
2022-11-16T08:24:46.420Z,7.05
2022-11-16T08:27:15.486Z,2.30
2022-11-16T08:29:44.382Z,1.70
2022-11-16T08:32:11.508Z,1.35
2022-11-16T08:34:38.586Z,5.88
2022-11-16T08:37:06.870Z,4.03
2022-11-16T08:39:40.313Z,1.75
2022-11-16T08:42:08.683Z,3.90
2022-11-16T08:44:36.358Z,1.65
2022-11-16T08:47:08.057Z,0.68
2022-11-16T08:49:55.999Z,4.95
2022-11-16T08:52:25.139Z,3.60
2022-11-16T08:54:53.871Z,3.17
2022-11-16T08:57:21.345Z,3.38
2022-11-16T08:59:53.324Z,1.83
2022-11-16T09:02:25.524Z,3.38
2022-11-16T09:04:53.239Z,1.08
2022-11-16T09:07:21.110Z,1.08
2022-11-16T09:09:48.770Z,2.03
2022-11-16T09:12:16.235Z,1.23
2022-11-16T09:14:43.421Z,2.63
2022-11-16T09:17:10.828Z,1.70
2022-11-16T09:19:38.159Z,2.78
2022-11-16T09:22:05.307Z,0.98
2022-11-16T09:24:32.525Z,1.83
2022-11-16T09:27:01.459Z,2.53
2022-11-16T09:29:28.773Z,4.70
2022-11-16T09:31:56.117Z,1.10
2022-11-16T09:34:23.330Z,2.88
2022-11-16T09:36:50.614Z,1.40
2022-11-16T09:39:33.007Z,5.10
2022-11-16T09:42:06.789Z,3.42
2022-11-16T09:44:40.091Z,2.45
2022-11-16T09:47:16.352Z,2.97
2022-11-16T09:49:51.184Z,1.38
2022-11-16T09:52:21.407Z,2.08
2022-11-16T09:54:50.279Z,3.92
2022-11-16T09:57:22.230Z,5.85
2022-11-16T09:59:54.753Z,4.82
2022-11-16T10:02:39.025Z,3.03
2022-11-16T10:05:29.874Z,1.15
2022-11-16T10:08:39.065Z,1.23
2022-11-16T10:11:12.285Z,2.90
2022-11-16T10:14:03.949Z,1.83
2022-11-16T10:16:37.313Z,2.00
2022-11-16T10:19:27.175Z,2.10
2022-11-16T10:22:03.590Z,7.18
2022-11-16T10:24:43.605Z,1.73
2022-11-16T10:27:42.644Z,2.10
2022-11-16T10:30:14.694Z,2.20
2022-11-16T10:32:55.995Z,3.42
2022-11-16T10:35:34.507Z,1.30
2022-11-16T10:38:04.117Z,4.57
2022-11-16T10:40:39.685Z,2.72
2022-11-16T10:43:24.908Z,4.60
2022-11-16T10:45:58.002Z,1.65
2022-11-16T10:48:39.854Z,2.28
2022-11-16T10:51:09.342Z,1.70
2022-11-16T10:53:41.401Z,4.50
2022-11-16T10:56:28.753Z,2.35
2022-11-16T10:58:57.459Z,3.35
2022-11-16T11:01:40.678Z,5.05
2022-11-16T11:04:21.297Z,3.58
2022-11-16T11:06:56.069Z,4.13
2022-11-16T11:09:35.250Z,6.43
2022-11-16T11:12:36.811Z,3.85
2022-11-16T11:15:26.454Z,1.85
2022-11-16T11:18:15.684Z,2.40
2022-11-16T11:20:50.293Z,4.53
2022-11-16T11:23:31.519Z,6.15
2022-11-16T11:26:00.617Z,3.85
2022-11-16T11:28:33.690Z,2.97
2022-11-16T11:31:17.060Z,3.40
2022-11-16T11:33:52.223Z,2.53
2022-11-16T11:36:28.427Z,6.45
2022-11-16T11:39:03.703Z,1.85
2022-11-16T11:41:37.680Z,8.68
2022-11-16T11:44:16.637Z,2.67
2022-11-16T11:50:25.255Z,4.32
2022-11-16T11:53:06.449Z,3.83
2022-11-16T11:55:34.481Z,5.28
2022-11-16T11:58:06.372Z,7.18
2022-11-16T12:00:57.226Z,1.75
2022-11-16T12:03:43.474Z,1.30
2022-11-16T12:06:28.735Z,3.47
2022-11-16T12:09:07.832Z,2.95
2022-11-16T12:12:15.455Z,2.00
2022-11-16T12:15:04.445Z,3.15
2022-11-16T12:18:10.710Z,3.47
2022-11-16T12:20:56.555Z,2.88
2022-11-16T12:23:43.095Z,3.05
2022-11-16T12:26:43.702Z,3.80
2022-11-16T12:29:26.806Z,8.98
2022-11-16T12:32:17.815Z,2.78
2022-11-16T12:35:12.793Z,4.00
2022-11-16T12:37:53.844Z,3.30
2022-11-16T12:40:34.795Z,6.07
2022-11-16T12:43:40.970Z,3.28
2022-11-16T12:46:23.947Z,3.22
2022-11-16T12:49:16.527Z,4.38
2022-11-16T12:52:08.028Z,4.85
2022-11-16T12:54:35.180Z,3.63
2022-11-16T12:57:28.696Z,5.85
2022-11-16T13:00:06.915Z,8.10
2022-11-16T13:03:07.580Z,6.15
2022-11-16T13:05:56.718Z,8.88
2022-11-16T13:08:32.531Z,6.30
2022-11-16T13:11:22.805Z,5.32
2022-11-16T13:13:56.030Z,6.60
2022-11-16T13:16:24.839Z,6.40
2022-11-16T13:18:53.721Z,8.88
2022-11-16T13:21:35.595Z,4.43
2022-11-16T13:24:35.279Z,7.13
2022-11-16T13:27:39.721Z,4.70
2022-11-16T13:30:22.642Z,3.78
2022-11-16T13:33:01.943Z,7.53
2022-11-16T13:35:29.623Z,4.50
2022-11-16T13:37:56.721Z,3.60
2022-11-16T13:40:29.532Z,9.15
2022-11-16T13:43:11.109Z,4.25
2022-11-16T13:45:42.896Z,4.03
2022-11-16T13:48:20.299Z,5.72
2022-11-16T13:50:54.701Z,4.70
2022-11-16T13:54:24.994Z,4.10
2022-11-16T13:56:24.171Z,2.63
2022-11-16T13:58:58.215Z,10.40
2022-11-16T14:01:26.676Z,9.57
2022-11-16T14:04:32.066Z,5.45
2022-11-16T14:07:00.309Z,4.68
2022-11-16T14:09:48.259Z,1.98
2022-11-16T14:12:54.405Z,4.50
2022-11-16T14:15:27.761Z,5.07
2022-11-16T14:18:02.233Z,7.93
2022-11-16T14:20:38.083Z,7.10
2022-11-16T14:23:16.310Z,7.00
2022-11-16T14:26:09.909Z,8.07
2022-11-16T14:28:48.477Z,3.88
2022-11-16T14:31:26.038Z,6.88
2022-11-16T14:33:56.433Z,6.07
2022-11-16T14:36:38.653Z,5.28
2022-11-16T14:39:23.057Z,3.63
2022-11-16T14:41:50.466Z,3.28
2022-11-16T14:44:21.816Z,6.85
2022-11-16T14:46:49.118Z,3.67
2022-11-16T14:49:18.137Z,5.40
2022-11-16T14:51:48.924Z,5.45
2022-11-16T14:54:42.442Z,5.47
2022-11-16T14:57:25.036Z,5.25
2022-11-16T15:00:18.236Z,6.28
2022-11-16T15:03:00.883Z,9.25
2022-11-16T15:05:34.638Z,6.40
2022-11-16T15:08:07.816Z,7.63
2022-11-16T15:10:35.620Z,10.07
2022-11-16T15:13:02.975Z,7.88
2022-11-16T15:15:31.580Z,8.27
2022-11-16T15:18:07.167Z,5.93
2022-11-16T15:20:37.131Z,7.25
2022-11-16T15:23:05.900Z,9.40
2022-11-16T15:25:37.579Z,8.10
2022-11-16T15:28:26.337Z,8.73
2022-11-16T15:30:55.424Z,11.00
2022-11-16T15:33:36.443Z,5.85
2022-11-16T15:36:23.140Z,6.78
2022-11-16T15:38:55.824Z,9.48
2022-11-16T15:41:25.509Z,9.88
2022-11-16T15:44:13.263Z,7.60
2022-11-16T15:46:42.880Z,9.85
2022-11-16T15:49:31.882Z,9.18
2022-11-16T15:52:00.286Z,7.05
2022-11-16T15:54:51.468Z,8.95
2022-11-16T15:57:20.902Z,13.20
2022-11-16T15:59:56.227Z,10.73
2022-11-16T16:02:27.700Z,4.55
2022-11-16T16:04:54.867Z,7.93
2022-11-16T16:07:41.470Z,8.85
2022-11-16T16:10:20.404Z,11.23
2022-11-16T16:12:55.498Z,12.20
2022-11-16T16:15:36.647Z,14.57
2022-11-16T16:18:11.095Z,9.23
2022-11-16T16:20:38.381Z,9.30
2022-11-16T16:23:12.820Z,10.65
2022-11-16T16:25:42.065Z,8.38
2022-11-16T16:28:12.716Z,8.80
2022-11-16T16:30:40.007Z,9.80
2022-11-16T16:33:07.308Z,8.30
2022-11-16T16:35:34.391Z,7.38
2022-11-16T16:38:01.583Z,15.93
2022-11-16T16:40:29.288Z,8.48
2022-11-16T16:42:57.019Z,8.43
2022-11-16T16:45:39.955Z,9.93
2022-11-16T16:48:08.166Z,8.48
2022-11-16T16:50:36.018Z,11.15
2022-11-16T16:53:03.390Z,10.80
2022-11-16T16:55:35.712Z,9.60
2022-11-16T16:58:04.692Z,13.70
2022-11-16T17:00:32.511Z,14.80
2022-11-16T17:02:59.744Z,13.38
2022-11-16T17:05:30.681Z,17.10
2022-11-16T17:07:58.243Z,15.68
2022-11-16T17:10:25.558Z,11.63
2022-11-16T17:12:56.371Z,18.73
2022-11-16T17:15:26.432Z,14.35
2022-11-16T17:17:53.603Z,17.63
2022-11-16T17:20:21.467Z,12.40
2022-11-16T17:22:48.995Z,21.20
2022-11-16T17:25:16.621Z,13.98
2022-11-16T17:27:43.892Z,13.85
2022-11-16T17:30:11.661Z,13.65
2022-11-16T17:32:39.068Z,12.75
2022-11-16T17:35:06.588Z,10.88
2022-11-16T17:37:34.639Z,13.80
2022-11-16T17:40:01.799Z,12.40
2022-11-16T17:42:29.054Z,15.13
2022-11-16T17:44:57.006Z,10.60
2022-11-16T17:47:24.183Z,13.20
2022-11-16T17:49:51.410Z,12.02
2022-11-16T17:52:18.524Z,11.55
2022-11-16T17:54:45.684Z,11.07
2022-11-16T17:57:12.886Z,10.85
2022-11-16T17:59:40.042Z,10.32
2022-11-16T18:02:09.872Z,10.52
2022-11-16T18:04:37.331Z,8.52
2022-11-16T18:07:04.534Z,8.85
2022-11-16T18:09:31.683Z,6.38
2022-11-16T18:11:58.900Z,8.00
2022-11-16T18:14:27.128Z,11.35
2022-11-16T18:16:54.340Z,9.40
2022-11-16T18:19:21.480Z,6.85
2022-11-16T18:21:49.079Z,5.03
2022-11-16T18:24:16.711Z,4.55
2022-11-16T18:26:43.961Z,7.38
2022-11-16T18:29:15.438Z,6.93
2022-11-16T18:31:42.673Z,7.47
2022-11-16T18:34:12.853Z,10.35
2022-11-16T18:36:40.421Z,7.55
2022-11-16T18:39:08.276Z,5.85
2022-11-16T18:41:35.465Z,6.35
2022-11-16T18:44:02.897Z,8.43
2022-11-16T18:46:32.432Z,10.98
2022-11-16T18:49:00.174Z,9.32
2022-11-16T18:51:28.868Z,6.63
2022-11-16T18:53:56.212Z,5.60
2022-11-16T18:56:24.128Z,7.32
2022-11-16T18:58:52.867Z,5.55
2022-11-16T19:01:23.368Z,11.75
2022-11-16T19:03:52.270Z,7.05
2022-11-16T19:06:19.573Z,8.15
2022-11-16T19:08:55.053Z,6.07
2022-11-16T19:11:23.378Z,4.95
2022-11-16T19:13:57.148Z,3.92
2022-11-16T19:16:25.337Z,4.60
2022-11-16T19:18:52.778Z,5.22
2022-11-16T19:21:24.035Z,5.45
2022-11-16T19:23:53.256Z,9.55
2022-11-16T19:26:23.068Z,6.57
2022-11-16T19:28:51.446Z,7.95
2022-11-16T19:31:20.144Z,3.35
2022-11-16T19:33:47.219Z,6.88
2022-11-16T19:36:17.141Z,8.23
2022-11-16T19:38:46.150Z,3.78
2022-11-16T19:41:14.899Z,7.35
2022-11-16T19:43:42.536Z,6.13
2022-11-16T19:46:20.371Z,8.75
2022-11-16T19:48:49.472Z,11.23
2022-11-16T19:51:25.091Z,6.70
2022-11-16T19:53:52.836Z,6.25
2022-11-16T19:56:21.665Z,6.50
2022-11-16T19:58:49.067Z,4.45
2022-11-16T20:01:19.195Z,3.15
2022-11-16T20:03:48.825Z,7.28
2022-11-16T20:06:17.400Z,4.72
2022-11-16T20:08:51.456Z,4.22
2022-11-16T20:11:26.423Z,3.78
2022-11-16T20:13:55.206Z,6.35
2022-11-16T20:16:24.897Z,4.53
2022-11-16T20:18:52.826Z,2.83
2022-11-16T20:21:23.769Z,5.22
2022-11-16T20:23:54.128Z,4.60
2022-11-16T20:26:22.648Z,2.78
2022-11-16T20:28:52.367Z,4.32
2022-11-16T20:31:25.002Z,5.18
2022-11-16T20:33:57.360Z,4.85
2022-11-16T20:38:53.554Z,4.38
2022-11-16T20:41:23.317Z,2.17
2022-11-16T20:43:52.277Z,4.53
2022-11-16T20:46:21.320Z,3.40
2022-11-16T20:48:48.565Z,2.88
2022-11-16T20:51:18.131Z,2.70
2022-11-16T20:53:46.662Z,4.20
2022-11-16T20:56:15.618Z,2.42
2022-11-16T20:58:43.225Z,2.85
2022-11-16T21:01:32.117Z,1.50
2022-11-16T21:04:05.904Z,1.35
2022-11-16T21:06:33.680Z,1.92
2022-11-16T21:09:01.002Z,3.13
2022-11-16T21:11:30.573Z,1.70
2022-11-16T21:14:16.007Z,1.73
2022-11-16T21:16:43.941Z,1.33
2022-11-16T21:19:12.034Z,1.35
2022-11-16T21:21:40.836Z,1.02
2022-11-16T21:24:11.594Z,1.25
2022-11-16T21:26:38.963Z,1.75
2022-11-16T21:29:06.697Z,2.05
2022-11-16T21:31:36.241Z,1.15
2022-11-16T21:34:03.896Z,2.15
2022-11-16T21:36:32.196Z,1.80
2022-11-16T21:38:59.467Z,4.15
2022-11-16T21:41:27.403Z,2.70
2022-11-16T21:43:54.921Z,2.25
2022-11-16T21:46:26.878Z,4.05
2022-11-16T21:48:56.634Z,3.40
2022-11-16T21:51:26.251Z,4.35
2022-11-16T21:53:53.598Z,3.72
2022-11-16T21:56:22.948Z,4.95
2022-11-16T21:58:53.536Z,7.40
2022-11-16T22:01:22.286Z,3.42
2022-11-16T22:04:09.971Z,6.05
2022-11-16T22:06:55.576Z,4.32
2022-11-16T22:09:22.960Z,5.55
2022-11-16T22:11:50.718Z,3.78
2022-11-16T22:14:17.843Z,2.80
2022-11-16T22:16:44.975Z,3.35
2022-11-16T22:19:12.312Z,5.40
2022-11-16T22:21:45.812Z,4.18
2022-11-16T22:24:13.284Z,3.95
2022-11-16T22:26:43.869Z,3.53
2022-11-16T22:29:10.906Z,3.47
2022-11-16T22:31:37.966Z,2.67
2022-11-16T22:34:05.107Z,8.65
2022-11-16T22:36:32.195Z,3.20
2022-11-16T22:39:01.230Z,9.77
2022-11-16T22:41:28.381Z,10.85
2022-11-16T22:43:55.571Z,8.82
2022-11-16T22:46:22.669Z,7.85
2022-11-16T22:48:49.784Z,11.10
2022-11-16T22:51:21.395Z,12.60
2022-11-16T22:53:59.246Z,13.57
2022-11-16T22:56:27.339Z,13.35
2022-11-16T22:58:54.728Z,12.95
2022-11-16T23:01:21.906Z,20.02
2022-11-16T23:03:49.562Z,11.90
2022-11-16T23:06:23.346Z,22.55
2022-11-16T23:08:53.628Z,20.35
2022-11-16T23:11:41.461Z,18.27
2022-11-16T23:14:31.061Z,13.32
2022-11-16T23:16:58.234Z,12.68
2022-11-16T23:19:44.651Z,17.83
2022-11-16T23:22:36.061Z,15.43
2022-11-16T23:25:23.154Z,18.65
2022-11-16T23:28:02.434Z,18.35
2022-11-16T23:30:29.616Z,12.40
2022-11-16T23:32:56.879Z,18.70
2022-11-16T23:35:23.995Z,20.35
2022-11-16T23:37:55.096Z,17.48
2022-11-16T23:40:27.703Z,19.67
2022-11-16T23:43:14.146Z,19.70
2022-11-16T23:45:43.126Z,17.10
2022-11-16T23:48:14.587Z,13.07
2022-11-16T23:50:42.824Z,11.03
2022-11-16T23:53:10.735Z,17.88
2022-11-16T23:55:39.234Z,12.57
2022-11-16T23:58:07.674Z,13.02
